createdAt,value
2022-12-07T00:02:28.265Z,1.38
2022-12-07T00:05:16.118Z,1.40
2022-12-07T00:08:04.059Z,1.39
2022-12-07T00:10:52.173Z,1.40
2022-12-07T00:13:41.263Z,1.41
2022-12-07T00:16:33.686Z,1.41
2022-12-07T00:19:21.333Z,1.41
2022-12-07T00:22:09.066Z,1.42
2022-12-07T00:24:56.868Z,1.41
2022-12-07T00:27:44.411Z,1.42
2022-12-07T00:30:32.205Z,1.40
2022-12-07T00:33:20.028Z,1.38
2022-12-07T00:36:12.028Z,1.41
2022-12-07T00:39:01.750Z,1.40
2022-12-07T00:41:49.572Z,1.42
2022-12-07T00:44:37.428Z,1.41
2022-12-07T00:47:24.953Z,1.41
2022-12-07T00:50:12.632Z,1.43
2022-12-07T00:53:00.477Z,1.43
2022-12-07T00:55:48.491Z,1.45
2022-12-07T00:58:36.801Z,1.45
2022-12-07T01:01:28.557Z,1.46
2022-12-07T01:04:16.328Z,1.48
2022-12-07T01:07:04.134Z,1.51
2022-12-07T01:09:51.525Z,1.52
2022-12-07T01:12:39.426Z,1.48
2022-12-07T01:15:27.516Z,1.47
2022-12-07T01:18:15.451Z,1.44
2022-12-07T01:21:07.749Z,1.43
2022-12-07T01:23:55.739Z,1.46
2022-12-07T01:26:43.570Z,1.47
2022-12-07T01:29:31.581Z,1.49
2022-12-07T01:32:19.073Z,1.52
2022-12-07T01:35:07.253Z,1.53
2022-12-07T01:37:54.683Z,1.55
2022-12-07T01:40:42.509Z,1.55
2022-12-07T01:43:35.173Z,1.54
2022-12-07T01:46:22.585Z,1.56
2022-12-07T01:49:38.333Z,1.57
2022-12-07T01:52:34.727Z,1.56
2022-12-07T01:55:22.729Z,1.54
2022-12-07T01:58:13.078Z,1.54
2022-12-07T02:01:00.666Z,1.54
2022-12-07T02:03:49.652Z,1.56
2022-12-07T02:06:38.500Z,1.57
2022-12-07T02:09:26.187Z,1.55
2022-12-07T02:12:14.095Z,1.54
2022-12-07T02:15:01.772Z,1.55
2022-12-07T02:17:52.047Z,1.56
2022-12-07T02:20:47.919Z,1.56
2022-12-07T02:23:48.746Z,1.55
2022-12-07T02:27:29.165Z,1.58
2022-12-07T02:30:21.574Z,1.57
2022-12-07T02:33:20.890Z,1.58
2022-12-07T02:36:21.336Z,1.57
2022-12-07T02:40:06.975Z,1.56
2022-12-07T02:43:15.706Z,1.55
2022-12-07T02:46:12.239Z,1.54
2022-12-07T02:49:03.370Z,1.53
2022-12-07T02:51:53.245Z,1.53
2022-12-07T02:54:41.255Z,1.52
2022-12-07T02:58:23.291Z,1.52
2022-12-07T03:02:01.421Z,1.51
2022-12-07T03:05:01.985Z,1.53
2022-12-07T03:08:08.010Z,1.53
2022-12-07T03:11:05.863Z,1.52
2022-12-07T03:14:18.661Z,1.54
2022-12-07T03:17:17.601Z,1.54
2022-12-07T03:20:08.919Z,1.55
2022-12-07T03:22:58.857Z,1.56
2022-12-07T03:26:00.205Z,1.58
2022-12-07T03:28:58.316Z,1.56
2022-12-07T03:31:54.455Z,1.55
2022-12-07T03:34:55.785Z,1.56
2022-12-07T03:37:55.691Z,1.59
2022-12-07T03:40:56.027Z,1.63
2022-12-07T03:43:43.792Z,1.64
2022-12-07T03:46:57.020Z,1.66
2022-12-07T03:50:04.229Z,1.68
2022-12-07T03:53:03.667Z,1.72
2022-12-07T03:55:53.828Z,1.76
2022-12-07T03:58:42.378Z,1.78
2022-12-07T04:01:29.880Z,1.79
2022-12-07T04:04:18.558Z,1.80
2022-12-07T04:07:06.591Z,1.82
2022-12-07T04:09:55.959Z,1.82
2022-12-07T04:12:43.792Z,1.84
2022-12-07T04:15:31.220Z,1.86
2022-12-07T04:18:19.270Z,1.90
2022-12-07T04:21:07.000Z,1.91
2022-12-07T04:23:54.902Z,1.92
2022-12-07T04:26:44.059Z,1.94
2022-12-07T04:29:32.203Z,1.98
2022-12-07T04:32:20.008Z,1.99
2022-12-07T04:35:08.944Z,2.00
2022-12-07T04:37:56.695Z,1.98
2022-12-07T04:40:44.213Z,1.95
2022-12-07T04:43:32.185Z,1.92
2022-12-07T04:46:19.875Z,1.90
2022-12-07T04:49:07.760Z,1.88
2022-12-07T04:51:55.486Z,1.93
2022-12-07T04:54:42.997Z,1.95
2022-12-07T04:57:30.668Z,1.97
2022-12-07T05:00:18.820Z,1.98
2022-12-07T05:03:07.117Z,1.99
2022-12-07T05:05:54.963Z,2.01
2022-12-07T05:08:43.114Z,2.02
2022-12-07T05:11:40.295Z,2.03
2022-12-07T05:14:28.091Z,2.02
2022-12-07T05:17:15.786Z,2.01
2022-12-07T05:20:03.977Z,2.01
2022-12-07T05:22:51.889Z,2.00
2022-12-07T05:25:40.571Z,1.99
2022-12-07T05:28:28.180Z,1.98
2022-12-07T05:31:15.997Z,1.97
2022-12-07T05:34:03.658Z,1.96
2022-12-07T05:36:51.489Z,1.95
2022-12-07T05:39:41.948Z,1.93
2022-12-07T05:42:29.385Z,1.92
2022-12-07T05:45:17.573Z,1.91
2022-12-07T05:48:05.891Z,1.91
2022-12-07T05:50:53.845Z,1.90
2022-12-07T05:53:41.531Z,1.90
2022-12-07T05:56:29.660Z,1.88
2022-12-07T05:59:24.075Z,1.88
2022-12-07T06:02:15.750Z,1.87
2022-12-07T06:05:03.639Z,1.87
2022-12-07T06:07:51.598Z,1.85
2022-12-07T06:10:39.553Z,1.82
2022-12-07T06:13:27.077Z,1.79
2022-12-07T06:16:14.859Z,1.76
2022-12-07T06:19:02.944Z,1.73
2022-12-07T06:21:50.632Z,1.69
2022-12-07T06:24:39.903Z,1.66
2022-12-07T06:27:27.495Z,1.62
2022-12-07T06:30:15.173Z,1.59
2022-12-07T06:33:03.172Z,1.55
2022-12-07T06:35:50.791Z,1.52
2022-12-07T06:38:38.755Z,1.50
2022-12-07T06:41:26.592Z,1.48
2022-12-07T06:44:14.930Z,1.48
2022-12-07T06:47:31.815Z,1.46
2022-12-07T06:50:11.105Z,1.45
2022-12-07T06:52:58.838Z,1.43
2022-12-07T06:55:46.737Z,1.41
2022-12-07T06:58:34.552Z,1.38
2022-12-07T07:01:22.596Z,1.35
2022-12-07T07:04:10.394Z,1.34
2022-12-07T07:07:00.131Z,1.34
2022-12-07T07:09:48.314Z,1.36
2022-12-07T07:12:35.826Z,1.37
2022-12-07T07:15:23.564Z,1.39
2022-12-07T07:18:11.690Z,1.40
2022-12-07T07:20:59.781Z,1.40
2022-12-07T07:23:47.588Z,1.42
2022-12-07T07:26:35.168Z,1.43
2022-12-07T07:29:23.253Z,1.45
2022-12-07T07:32:11.047Z,1.45
2022-12-07T07:34:58.592Z,1.42
2022-12-07T07:37:46.247Z,1.43
2022-12-07T07:40:34.561Z,1.44
2022-12-07T07:43:22.354Z,1.44
2022-12-07T07:46:10.364Z,1.44
2022-12-07T07:48:57.898Z,1.45
2022-12-07T07:51:45.589Z,1.47
2022-12-07T07:54:33.429Z,1.54
2022-12-07T07:57:21.473Z,1.57
2022-12-07T08:00:15.232Z,1.63
2022-12-07T08:03:06.090Z,1.72
2022-12-07T08:05:53.917Z,1.78
2022-12-07T08:08:41.914Z,1.84
2022-12-07T08:11:30.425Z,1.95
2022-12-07T08:14:18.334Z,2.03
2022-12-07T08:17:05.850Z,2.10
2022-12-07T08:19:53.734Z,2.09
2022-12-07T08:22:41.278Z,2.06
2022-12-07T08:25:29.447Z,2.00
2022-12-07T08:28:17.793Z,1.98
2022-12-07T08:31:15.017Z,1.96
2022-12-07T08:34:03.011Z,1.96
2022-12-07T08:36:50.954Z,1.95
2022-12-07T08:39:38.338Z,1.93
2022-12-07T08:42:30.628Z,1.96
2022-12-07T08:45:26.286Z,1.94
2022-12-07T08:48:18.388Z,1.92
2022-12-07T08:51:06.144Z,1.93
2022-12-07T08:53:55.038Z,1.94
2022-12-07T08:56:43.505Z,1.95
2022-12-07T08:59:31.802Z,1.95
2022-12-07T09:02:19.899Z,1.92
2022-12-07T09:05:11.896Z,1.90
2022-12-07T09:08:04.562Z,1.91
2022-12-07T09:10:52.293Z,1.92
2022-12-07T09:13:40.085Z,1.86
2022-12-07T09:16:28.128Z,1.86
2022-12-07T09:19:16.074Z,1.87
2022-12-07T09:22:05.908Z,1.90
2022-12-07T09:24:54.006Z,1.92
2022-12-07T09:27:42.788Z,1.91
2022-12-07T09:30:30.574Z,1.89
2022-12-07T09:33:18.275Z,1.87
2022-12-07T09:36:06.558Z,1.89
2022-12-07T09:38:54.190Z,1.89
2022-12-07T09:41:45.831Z,1.87
2022-12-07T09:44:36.807Z,1.84
2022-12-07T09:47:24.393Z,1.83
2022-12-07T09:50:28.335Z,1.84
2022-12-07T09:53:27.105Z,1.88
2022-12-07T09:56:16.823Z,1.91
2022-12-07T09:59:04.917Z,1.90
2022-12-07T10:01:52.752Z,1.87
2022-12-07T10:04:41.433Z,1.85
2022-12-07T10:07:30.531Z,1.85
2022-12-07T10:10:32.752Z,1.84
2022-12-07T10:13:36.137Z,1.81
2022-12-07T10:16:29.572Z,1.83
2022-12-07T10:19:22.891Z,1.87
2022-12-07T10:22:15.145Z,1.85
2022-12-07T10:25:20.243Z,1.86
2022-12-07T10:28:08.204Z,1.86
2022-12-07T10:31:05.374Z,1.86
2022-12-07T10:34:00.374Z,1.88
2022-12-07T10:36:48.124Z,1.89
2022-12-07T10:39:45.798Z,1.88
2022-12-07T10:42:33.683Z,1.88
2022-12-07T10:45:21.603Z,1.90
2022-12-07T10:48:34.730Z,1.88
2022-12-07T10:51:39.579Z,1.84
2022-12-07T10:55:28.585Z,1.79
2022-12-07T10:58:26.228Z,1.72
2022-12-07T11:01:19.897Z,1.66
2022-12-07T11:04:25.024Z,1.64
2022-12-07T11:07:49.745Z,1.64
2022-12-07T11:11:18.314Z,1.65
2022-12-07T11:14:35.800Z,1.66
2022-12-07T11:17:44.403Z,1.68
2022-12-07T11:20:47.690Z,1.66
2022-12-07T11:24:00.803Z,1.71
2022-12-07T11:26:55.445Z,1.76
2022-12-07T11:30:10.788Z,1.82
2022-12-07T11:33:10.987Z,1.93
2022-12-07T11:36:13.040Z,1.97
2022-12-07T11:39:05.963Z,2.03
2022-12-07T11:42:22.052Z,2.06
2022-12-07T11:45:30.001Z,1.99
2022-12-07T11:49:01.627Z,1.96
2022-12-07T11:51:54.262Z,1.93
2022-12-07T11:54:46.458Z,1.89
2022-12-07T11:57:45.941Z,1.83
2022-12-07T12:00:34.658Z,1.79
2022-12-07T12:03:35.389Z,1.74
2022-12-07T12:06:23.725Z,1.66
2022-12-07T12:16:32.555Z,1.52
2022-12-07T12:20:03.557Z,1.48
2022-12-07T12:23:08.312Z,1.43
2022-12-07T12:26:00.806Z,1.41
2022-12-07T12:29:02.067Z,1.42
2022-12-07T12:32:09.333Z,1.42
2022-12-07T12:35:27.901Z,1.40
2022-12-07T12:38:35.119Z,1.38
2022-12-07T12:41:47.464Z,1.37
2022-12-07T12:44:37.923Z,1.37
2022-12-07T12:47:44.231Z,1.37
2022-12-07T12:50:38.760Z,1.40
2022-12-07T12:53:28.513Z,1.40
2022-12-07T12:56:41.612Z,1.42
2022-12-07T12:59:53.779Z,1.42
2022-12-07T13:03:25.064Z,1.39
2022-12-07T13:06:43.286Z,1.37
2022-12-07T13:09:35.679Z,1.33
2022-12-07T13:12:23.264Z,1.29
2022-12-07T13:15:39.431Z,1.26
2022-12-07T13:18:39.670Z,1.27
2022-12-07T13:21:27.447Z,1.25
2022-12-07T13:24:15.685Z,1.22
2022-12-07T13:27:03.909Z,1.21
2022-12-07T13:29:51.895Z,1.20
2022-12-07T13:32:39.983Z,1.15
2022-12-07T13:35:32.418Z,1.14
2022-12-07T13:38:33.276Z,1.15
2022-12-07T13:41:25.421Z,1.15
2022-12-07T13:44:16.443Z,1.16
2022-12-07T13:47:36.249Z,1.16
2022-12-07T13:50:24.026Z,1.14
2022-12-07T13:53:15.303Z,1.13
2022-12-07T13:56:03.804Z,1.11
2022-12-07T13:58:51.722Z,1.11
2022-12-07T14:01:39.656Z,1.10
2022-12-07T14:04:36.513Z,1.05
2022-12-07T14:07:29.768Z,0.99
2022-12-07T14:10:37.112Z,0.94
2022-12-07T14:13:42.438Z,0.90
2022-12-07T14:16:38.911Z,0.87
2022-12-07T14:19:49.469Z,0.84
2022-12-07T14:22:39.738Z,0.82
2022-12-07T14:25:28.519Z,0.79
2022-12-07T14:28:31.970Z,0.76
2022-12-07T14:31:30.463Z,0.75
2022-12-07T14:34:22.404Z,0.75
2022-12-07T14:37:11.753Z,0.74
2022-12-07T14:39:59.607Z,0.73
2022-12-07T14:42:52.423Z,0.74
2022-12-07T14:45:43.209Z,0.73
2022-12-07T14:54:49.985Z,0.65
2022-12-07T14:57:37.636Z,0.62
2022-12-07T15:00:30.098Z,0.59
2022-12-07T15:03:18.100Z,0.53
2022-12-07T15:06:07.354Z,0.48
2022-12-07T15:08:58.375Z,0.44
2022-12-07T15:11:45.762Z,0.38
2022-12-07T15:14:33.320Z,0.30
2022-12-07T15:17:31.186Z,0.27
2022-12-07T15:20:19.272Z,0.23
2022-12-07T15:23:07.710Z,0.20
2022-12-07T15:25:55.457Z,0.19
2022-12-07T15:28:43.336Z,0.17
2022-12-07T15:34:40.537Z,0.18
2022-12-07T15:37:28.922Z,0.17
2022-12-07T15:40:17.007Z,0.19
2022-12-07T15:43:05.370Z,0.20
2022-12-07T15:45:52.910Z,0.19
2022-12-07T15:48:40.682Z,0.20
2022-12-07T15:51:28.972Z,0.21
2022-12-07T15:54:27.021Z,0.21
2022-12-07T15:57:18.453Z,0.23
2022-12-07T16:00:11.286Z,0.26
2022-12-07T16:03:01.345Z,0.29
2022-12-07T16:05:58.820Z,0.31
2022-12-07T16:08:50.447Z,0.31
2022-12-07T16:11:39.395Z,0.31
2022-12-07T16:14:27.504Z,0.31
2022-12-07T16:17:15.561Z,0.32
2022-12-07T16:20:05.490Z,0.33
2022-12-07T16:22:54.433Z,0.36
2022-12-07T16:25:42.445Z,0.34
2022-12-07T16:28:30.104Z,0.36
2022-12-07T16:31:24.725Z,0.35
2022-12-07T16:34:12.444Z,0.36
2022-12-07T16:37:04.961Z,0.33
2022-12-07T16:39:53.375Z,0.32
2022-12-07T16:42:41.641Z,0.31
2022-12-07T16:45:29.645Z,0.28
2022-12-07T16:48:17.974Z,0.26
2022-12-07T16:51:11.916Z,0.23
2022-12-07T16:53:59.894Z,0.17
2022-12-07T16:56:47.567Z,0.15
2022-12-07T16:59:35.214Z,0.11
2022-12-07T17:02:22.737Z,0.05
2022-12-07T17:05:20.881Z,0.01
2022-12-07T17:08:24.463Z,-0.03
2022-12-07T17:11:28.647Z,-0.08
2022-12-07T17:14:36.964Z,-0.12
2022-12-07T17:17:39.020Z,-0.14
2022-12-07T17:20:39.881Z,-0.15
2022-12-07T17:23:42.138Z,-0.15
2022-12-07T17:26:35.728Z,-0.14
2022-12-07T17:29:27.544Z,-0.14
2022-12-07T17:32:15.614Z,-0.17
2022-12-07T17:35:05.220Z,-0.17
2022-12-07T17:37:52.912Z,-0.16
2022-12-07T17:40:40.636Z,-0.15
2022-12-07T17:43:28.605Z,-0.15
2022-12-07T17:46:16.695Z,-0.15
2022-12-07T17:49:06.545Z,-0.17
2022-12-07T17:52:13.181Z,-0.18
2022-12-07T17:55:01.265Z,-0.20
2022-12-07T17:57:49.906Z,-0.18
2022-12-07T18:00:38.761Z,-0.18
2022-12-07T18:03:26.661Z,-0.18
2022-12-07T18:06:14.765Z,-0.20
2022-12-07T18:09:03.566Z,-0.21
2022-12-07T18:11:51.308Z,-0.23
2022-12-07T18:14:39.344Z,-0.20
2022-12-07T18:17:27.109Z,-0.20
2022-12-07T18:20:15.583Z,-0.18
2022-12-07T18:23:03.352Z,-0.14
2022-12-07T18:25:51.784Z,-0.14
2022-12-07T18:28:40.924Z,-0.14
2022-12-07T18:31:29.719Z,-0.19
2022-12-07T18:34:19.549Z,-0.24
2022-12-07T18:37:09.816Z,-0.30
2022-12-07T18:40:01.179Z,-0.36
2022-12-07T18:42:48.876Z,-0.38
2022-12-07T18:45:42.521Z,-0.39
2022-12-07T18:48:30.789Z,-0.37
2022-12-07T18:51:27.376Z,-0.35
2022-12-07T18:54:18.435Z,-0.35
2022-12-07T18:57:06.276Z,-0.34
2022-12-07T18:59:54.213Z,-0.33
2022-12-07T19:02:43.130Z,-0.33
2022-12-07T19:05:30.946Z,-0.31
2022-12-07T19:08:18.715Z,-0.33
2022-12-07T19:11:28.021Z,-0.35
2022-12-07T19:14:28.059Z,-0.39
2022-12-07T19:17:15.767Z,-0.41
2022-12-07T19:20:07.051Z,-0.41
2022-12-07T19:22:54.849Z,-0.43
2022-12-07T19:25:42.614Z,-0.46
2022-12-07T19:28:30.548Z,-0.46
2022-12-07T19:31:18.492Z,-0.47
2022-12-07T19:34:16.311Z,-0.46
2022-12-07T19:37:05.190Z,-0.47
2022-12-07T19:39:53.602Z,-0.49
2022-12-07T19:42:41.781Z,-0.53
2022-12-07T19:45:32.908Z,-0.59
2022-12-07T19:48:20.639Z,-0.62
2022-12-07T19:51:08.323Z,-0.65
2022-12-07T19:54:01.825Z,-0.64
2022-12-07T19:56:51.206Z,-0.61
2022-12-07T19:59:38.839Z,-0.57
2022-12-07T20:02:26.860Z,-0.53
2022-12-07T20:05:14.507Z,-0.50
2022-12-07T20:08:02.685Z,-0.46
2022-12-07T20:10:51.234Z,-0.43
2022-12-07T20:13:42.678Z,-0.46
2022-12-07T20:16:31.250Z,-0.48
2022-12-07T20:19:19.911Z,-0.51
2022-12-07T20:22:08.002Z,-0.51
2022-12-07T20:24:56.066Z,-0.52
2022-12-07T20:27:44.370Z,-0.55
2022-12-07T20:30:32.360Z,-0.59
2022-12-07T20:33:20.620Z,-0.64
2022-12-07T20:36:10.043Z,-0.68
2022-12-07T20:39:04.373Z,-0.73
2022-12-07T20:42:22.499Z,-0.77
2022-12-07T20:45:12.265Z,-0.82
2022-12-07T20:48:00.574Z,-0.81
2022-12-07T20:50:48.719Z,-0.81
2022-12-07T20:54:06.748Z,-0.80
2022-12-07T20:56:56.145Z,-0.78
2022-12-07T20:59:44.620Z,-0.78
2022-12-07T21:02:33.807Z,-0.80
2022-12-07T21:05:21.791Z,-0.79
2022-12-07T21:08:09.394Z,-0.74
2022-12-07T21:11:00.283Z,-0.69
2022-12-07T21:13:49.256Z,-0.64
2022-12-07T21:16:36.873Z,-0.61
2022-12-07T21:19:31.781Z,-0.58
2022-12-07T21:22:19.448Z,-0.60
2022-12-07T21:25:07.689Z,-0.63
2022-12-07T21:27:55.456Z,-0.65
2022-12-07T21:31:11.660Z,-0.66
2022-12-07T21:33:55.956Z,-0.65
2022-12-07T21:37:09.009Z,-0.62
2022-12-07T21:39:57.257Z,-0.61
2022-12-07T21:42:45.606Z,-0.62
2022-12-07T21:45:33.997Z,-0.62
2022-12-07T21:48:21.952Z,-0.62
2022-12-07T21:51:13.730Z,-0.61
2022-12-07T21:54:03.380Z,-0.56
2022-12-07T21:56:51.118Z,-0.54
2022-12-07T21:59:39.023Z,-0.50
2022-12-07T22:02:32.022Z,-0.46
2022-12-07T22:05:20.025Z,-0.43
2022-12-07T22:08:08.051Z,-0.44
2022-12-07T22:11:01.861Z,-0.44
2022-12-07T22:14:10.572Z,-0.43
2022-12-07T22:16:58.873Z,-0.42
2022-12-07T22:19:46.349Z,-0.41
2022-12-07T22:22:34.291Z,-0.40
2022-12-07T22:25:22.100Z,-0.38
2022-12-07T22:28:09.538Z,-0.37
2022-12-07T22:31:06.376Z,-0.35
2022-12-07T22:33:54.268Z,-0.33
2022-12-07T22:36:42.311Z,-0.32
2022-12-07T22:39:30.300Z,-0.31
2022-12-07T22:42:18.059Z,-0.30
2022-12-07T22:45:06.780Z,-0.31
2022-12-07T22:47:55.672Z,-0.30
2022-12-07T22:50:43.668Z,-0.32
2022-12-07T22:53:32.538Z,-0.34
2022-12-07T22:56:21.510Z,-0.33
2022-12-07T22:59:12.696Z,-0.32
2022-12-07T23:02:02.199Z,-0.30
2022-12-07T23:04:50.028Z,-0.29
2022-12-07T23:07:38.213Z,-0.29
2022-12-07T23:10:26.620Z,-0.28
2022-12-07T23:13:32.464Z,-0.28
2022-12-07T23:16:20.232Z,-0.29
2022-12-07T23:19:08.523Z,-0.29
2022-12-07T23:21:59.941Z,-0.28
2022-12-07T23:24:52.724Z,-0.28
2022-12-07T23:27:42.713Z,-0.29
2022-12-07T23:30:30.809Z,-0.33
2022-12-07T23:33:18.294Z,-0.37
2022-12-07T23:36:25.933Z,-0.41
2022-12-07T23:39:13.781Z,-0.43
2022-12-07T23:42:01.604Z,-0.47
2022-12-07T23:44:49.404Z,-0.49
2022-12-07T23:47:37.106Z,-0.52
2022-12-07T23:50:25.151Z,-0.52
2022-12-07T23:53:13.017Z,-0.56
2022-12-07T23:56:00.813Z,-0.56
2022-12-07T23:58:50.809Z,-0.58
